sensor_id;sensor_type;location;lat;lon;timestamp;P1;durP1;ratioP1;P2;durP2;ratioP2
7142;SDS011;3613;48.902;9.204;2024-02-26T00:01:44;4.00;;;2.50;;
7142;SDS011;3613;48.902;9.204;2024-02-26T00:04:11;2.37;;;1.80;;
7142;SDS011;3613;48.902;9.204;2024-02-26T00:06:39;2.10;;;1.80;;
7142;SDS011;3613;48.902;9.204;2024-02-26T00:09:07;3.10;;;2.20;;
7142;SDS011;3613;48.902;9.204;2024-02-26T00:11:36;2.60;;;2.00;;
7142;SDS011;3613;48.902;9.204;2024-02-26T00:14:02;2.53;;;2.30;;
7142;SDS011;3613;48.902;9.204;2024-02-26T00:16:30;2.40;;;2.03;;
7142;SDS011;3613;48.902;9.204;2024-02-26T00:18:56;2.70;;;2.10;;
7142;SDS011;3613;48.902;9.204;2024-02-26T00:21:21;2.70;;;2.33;;
7142;SDS011;3613;48.902;9.204;2024-02-26T00:23:52;3.63;;;2.43;;
7142;SDS011;3613;48.902;9.204;2024-02-26T00:26:20;3.17;;;2.27;;
7142;SDS011;3613;48.902;9.204;2024-02-26T00:28:46;4.57;;;2.10;;
7142;SDS011;3613;48.902;9.204;2024-02-26T00:31:11;3.30;;;2.20;;
7142;SDS011;3613;48.902;9.204;2024-02-26T00:33:39;4.47;;;2.53;;
7142;SDS011;3613;48.902;9.204;2024-02-26T00:36:05;3.93;;;2.63;;
7142;SDS011;3613;48.902;9.204;2024-02-26T00:38:31;4.00;;;2.27;;
7142;SDS011;3613;48.902;9.204;2024-02-26T00:41:00;2.53;;;2.20;;
7142;SDS011;3613;48.902;9.204;2024-02-26T00:43:25;2.67;;;2.30;;
7142;SDS011;3613;48.902;9.204;2024-02-26T00:45:53;3.00;;;2.47;;
7142;SDS011;3613;48.902;9.204;2024-02-26T00:48:19;2.93;;;2.17;;
7142;SDS011;3613;48.902;9.204;2024-02-26T00:50:44;2.67;;;2.10;;
7142;SDS011;3613;48.902;9.204;2024-02-26T00:53:12;2.63;;;2.07;;
7142;SDS011;3613;48.902;9.204;2024-02-26T00:55:40;2.83;;;2.23;;
7142;SDS011;3613;48.902;9.204;2024-02-26T00:58:06;2.57;;;2.30;;
7142;SDS011;3613;48.902;9.204;2024-02-26T01:00:31;3.00;;;2.33;;
7142;SDS011;3613;48.902;9.204;2024-02-26T01:02:57;2.77;;;2.27;;
7142;SDS011;3613;48.902;9.204;2024-02-26T01:05:25;2.83;;;2.07;;
7142;SDS011;3613;48.902;9.204;2024-02-26T01:07:52;3.90;;;2.90;;
7142;SDS011;3613;48.902;9.204;2024-02-26T01:10:18;3.67;;;2.23;;
7142;SDS011;3613;48.902;9.204;2024-02-26T01:12:46;2.83;;;2.27;;
7142;SDS011;3613;48.902;9.204;2024-02-26T01:15:14;2.50;;;2.20;;
7142;SDS011;3613;48.902;9.204;2024-02-26T01:17:39;3.67;;;2.30;;
7142;SDS011;3613;48.902;9.204;2024-02-26T01:20:08;2.93;;;2.40;;
7142;SDS011;3613;48.902;9.204;2024-02-26T01:22:34;3.70;;;2.20;;
7142;SDS011;3613;48.902;9.204;2024-02-26T01:25:00;2.70;;;2.27;;
7142;SDS011;3613;48.902;9.204;2024-02-26T01:27:28;2.20;;;2.00;;
7142;SDS011;3613;48.902;9.204;2024-02-26T01:29:53;2.80;;;2.47;;
7142;SDS011;3613;48.902;9.204;2024-02-26T01:32:24;2.87;;;2.10;;
7142;SDS011;3613;48.902;9.204;2024-02-26T01:34:52;3.00;;;2.50;;
7142;SDS011;3613;48.902;9.204;2024-02-26T01:37:20;3.87;;;2.70;;
7142;SDS011;3613;48.902;9.204;2024-02-26T01:39:45;4.03;;;2.43;;
7142;SDS011;3613;48.902;9.204;2024-02-26T01:42:11;2.83;;;2.27;;
7142;SDS011;3613;48.902;9.204;2024-02-26T01:44:39;2.50;;;2.30;;
7142;SDS011;3613;48.902;9.204;2024-02-26T01:47:10;2.57;;;2.10;;
7142;SDS011;3613;48.902;9.204;2024-02-26T01:49:40;2.87;;;2.00;;
7142;SDS011;3613;48.902;9.204;2024-02-26T01:52:06;2.47;;;2.07;;
7142;SDS011;3613;48.902;9.204;2024-02-26T01:54:37;3.27;;;2.73;;
7142;SDS011;3613;48.902;9.204;2024-02-26T01:57:10;3.33;;;2.40;;
7142;SDS011;3613;48.902;9.204;2024-02-26T01:59:37;3.00;;;2.30;;
7142;SDS011;3613;48.902;9.204;2024-02-26T02:02:05;3.20;;;2.67;;
7142;SDS011;3613;48.902;9.204;2024-02-26T02:04:36;2.70;;;2.33;;
7142;SDS011;3613;48.902;9.204;2024-02-26T02:07:02;3.70;;;2.60;;
7142;SDS011;3613;48.902;9.204;2024-02-26T02:09:28;2.50;;;2.30;;
7142;SDS011;3613;48.902;9.204;2024-02-26T02:11:54;2.80;;;2.50;;
7142;SDS011;3613;48.902;9.204;2024-02-26T02:14:20;3.13;;;2.83;;
7142;SDS011;3613;48.902;9.204;2024-02-26T02:16:51;2.47;;;2.00;;
7142;SDS011;3613;48.902;9.204;2024-02-26T02:19:17;3.60;;;2.50;;
7142;SDS011;3613;48.902;9.204;2024-02-26T02:21:45;2.97;;;2.37;;
7142;SDS011;3613;48.902;9.204;2024-02-26T02:24:10;3.43;;;2.23;;
7142;SDS011;3613;48.902;9.204;2024-02-26T02:26:39;2.57;;;2.20;;
7142;SDS011;3613;48.902;9.204;2024-02-26T02:29:04;3.03;;;2.17;;
7142;SDS011;3613;48.902;9.204;2024-02-26T02:31:31;3.80;;;2.20;;
7142;SDS011;3613;48.902;9.204;2024-02-26T02:33:58;2.90;;;2.33;;
7142;SDS011;3613;48.902;9.204;2024-02-26T02:36:24;3.23;;;2.20;;
7142;SDS011;3613;48.902;9.204;2024-02-26T02:38:50;3.07;;;2.50;;
7142;SDS011;3613;48.902;9.204;2024-02-26T02:41:16;2.60;;;2.00;;
7142;SDS011;3613;48.902;9.204;2024-02-26T02:43:45;3.80;;;2.20;;
7142;SDS011;3613;48.902;9.204;2024-02-26T02:46:10;2.40;;;2.20;;
7142;SDS011;3613;48.902;9.204;2024-02-26T02:48:41;2.93;;;2.20;;
7142;SDS011;3613;48.902;9.204;2024-02-26T02:51:07;3.00;;;2.10;;
7142;SDS011;3613;48.902;9.204;2024-02-26T02:53:32;2.77;;;2.13;;
7142;SDS011;3613;48.902;9.204;2024-02-26T02:56:00;3.53;;;2.50;;
7142;SDS011;3613;48.902;9.204;2024-02-26T02:58:28;2.63;;;2.30;;
7142;SDS011;3613;48.902;9.204;2024-02-26T03:00:53;2.93;;;2.43;;
7142;SDS011;3613;48.902;9.204;2024-02-26T03:03:20;2.50;;;2.30;;
7142;SDS011;3613;48.902;9.204;2024-02-26T03:05:48;3.47;;;2.30;;
7142;SDS011;3613;48.902;9.204;2024-02-26T03:08:16;2.73;;;2.40;;
7142;SDS011;3613;48.902;9.204;2024-02-26T03:10:41;3.53;;;2.40;;
7142;SDS011;3613;48.902;9.204;2024-02-26T03:13:08;3.53;;;2.03;;
7142;SDS011;3613;48.902;9.204;2024-02-26T03:15:34;2.60;;;2.07;;
7142;SDS011;3613;48.902;9.204;2024-02-26T03:17:59;2.60;;;2.10;;
7142;SDS011;3613;48.902;9.204;2024-02-26T03:20:25;2.60;;;2.10;;
7142;SDS011;3613;48.902;9.204;2024-02-26T03:22:50;2.80;;;2.20;;
7142;SDS011;3613;48.902;9.204;2024-02-26T03:25:21;2.50;;;2.17;;
7142;SDS011;3613;48.902;9.204;2024-02-26T03:27:46;2.57;;;1.97;;
7142;SDS011;3613;48.902;9.204;2024-02-26T03:30:15;3.10;;;2.00;;
7142;SDS011;3613;48.902;9.204;2024-02-26T03:32:40;3.70;;;2.23;;
7142;SDS011;3613;48.902;9.204;2024-02-26T03:35:06;2.97;;;1.97;;
7142;SDS011;3613;48.902;9.204;2024-02-26T03:37:33;2.33;;;1.93;;
7142;SDS011;3613;48.902;9.204;2024-02-26T03:39:58;2.73;;;1.90;;
7142;SDS011;3613;48.902;9.204;2024-02-26T03:42:26;2.87;;;2.20;;
7142;SDS011;3613;48.902;9.204;2024-02-26T03:44:52;2.27;;;2.07;;
7142;SDS011;3613;48.902;9.204;2024-02-26T03:47:18;2.80;;;2.20;;
7142;SDS011;3613;48.902;9.204;2024-02-26T03:49:48;3.20;;;2.10;;
7142;SDS011;3613;48.902;9.204;2024-02-26T03:52:16;2.47;;;2.13;;
7142;SDS011;3613;48.902;9.204;2024-02-26T03:54:45;2.40;;;1.90;;
7142;SDS011;3613;48.902;9.204;2024-02-26T03:57:10;2.70;;;2.20;;
7142;SDS011;3613;48.902;9.204;2024-02-26T03:59:36;2.50;;;2.30;;
7142;SDS011;3613;48.902;9.204;2024-02-26T04:02:01;2.67;;;2.20;;
7142;SDS011;3613;48.902;9.204;2024-02-26T04:04:29;2.70;;;2.10;;
7142;SDS011;3613;48.902;9.204;2024-02-26T04:06:58;2.90;;;2.17;;
7142;SDS011;3613;48.902;9.204;2024-02-26T04:09:24;2.37;;;2.10;;
7142;SDS011;3613;48.902;9.204;2024-02-26T04:11:52;2.90;;;2.13;;
7142;SDS011;3613;48.902;9.204;2024-02-26T04:14:20;2.30;;;2.10;;
7142;SDS011;3613;48.902;9.204;2024-02-26T04:16:45;2.80;;;2.10;;
7142;SDS011;3613;48.902;9.204;2024-02-26T04:19:11;2.43;;;2.07;;
7142;SDS011;3613;48.902;9.204;2024-02-26T04:21:40;2.50;;;2.00;;
7142;SDS011;3613;48.902;9.204;2024-02-26T04:24:06;2.63;;;2.20;;
7142;SDS011;3613;48.902;9.204;2024-02-26T04:26:31;2.70;;;1.80;;
7142;SDS011;3613;48.902;9.204;2024-02-26T04:28:57;2.80;;;2.20;;
7142;SDS011;3613;48.902;9.204;2024-02-26T04:31:25;3.37;;;2.13;;
7142;SDS011;3613;48.902;9.204;2024-02-26T04:33:54;2.37;;;2.10;;
7142;SDS011;3613;48.902;9.204;2024-02-26T04:36:19;2.80;;;2.40;;
7142;SDS011;3613;48.902;9.204;2024-02-26T04:38:47;2.57;;;2.20;;
7142;SDS011;3613;48.902;9.204;2024-02-26T04:41:13;2.90;;;2.30;;
7142;SDS011;3613;48.902;9.204;2024-02-26T04:43:38;2.23;;;2.03;;
7142;SDS011;3613;48.902;9.204;2024-02-26T04:46:09;2.30;;;1.90;;
7142;SDS011;3613;48.902;9.204;2024-02-26T04:48:38;2.40;;;2.20;;
7142;SDS011;3613;48.902;9.204;2024-02-26T04:51:06;3.30;;;2.10;;
7142;SDS011;3613;48.902;9.204;2024-02-26T04:53:32;2.77;;;2.30;;
7142;SDS011;3613;48.902;9.204;2024-02-26T04:56:00;2.43;;;2.00;;
7142;SDS011;3613;48.902;9.204;2024-02-26T04:58:26;2.07;;;1.87;;
7142;SDS011;3613;48.902;9.204;2024-02-26T05:00:51;2.50;;;2.07;;
7142;SDS011;3613;48.902;9.204;2024-02-26T05:03:20;2.43;;;2.10;;
7142;SDS011;3613;48.902;9.204;2024-02-26T05:05:48;2.37;;;1.97;;
7142;SDS011;3613;48.902;9.204;2024-02-26T05:08:13;2.40;;;2.10;;
7142;SDS011;3613;48.902;9.204;2024-02-26T05:10:41;2.63;;;2.00;;
7142;SDS011;3613;48.902;9.204;2024-02-26T05:13:08;2.30;;;2.10;;
7142;SDS011;3613;48.902;9.204;2024-02-26T05:15:36;2.00;;;1.80;;
7142;SDS011;3613;48.902;9.204;2024-02-26T05:18:02;2.37;;;1.97;;
7142;SDS011;3613;48.902;9.204;2024-02-26T05:20:30;2.43;;;2.10;;
7142;SDS011;3613;48.902;9.204;2024-02-26T05:23:00;2.20;;;2.00;;
7142;SDS011;3613;48.902;9.204;2024-02-26T05:25:25;2.10;;;1.90;;
7142;SDS011;3613;48.902;9.204;2024-02-26T05:27:53;2.50;;;2.30;;
7142;SDS011;3613;48.902;9.204;2024-02-26T05:30:19;3.00;;;2.17;;
7142;SDS011;3613;48.902;9.204;2024-02-26T05:32:45;2.57;;;1.80;;
7142;SDS011;3613;48.902;9.204;2024-02-26T05:35:11;2.43;;;2.03;;
7142;SDS011;3613;48.902;9.204;2024-02-26T05:37:41;2.23;;;1.90;;
7142;SDS011;3613;48.902;9.204;2024-02-26T05:40:07;3.07;;;2.37;;
7142;SDS011;3613;48.902;9.204;2024-02-26T05:42:33;3.10;;;2.30;;
7142;SDS011;3613;48.902;9.204;2024-02-26T05:44:58;2.87;;;2.30;;
7142;SDS011;3613;48.902;9.204;2024-02-26T05:47:30;2.43;;;2.00;;
7142;SDS011;3613;48.902;9.204;2024-02-26T05:49:59;2.30;;;2.10;;
7142;SDS011;3613;48.902;9.204;2024-02-26T05:52:28;2.40;;;2.03;;
7142;SDS011;3613;48.902;9.204;2024-02-26T05:54:54;2.53;;;1.93;;
7142;SDS011;3613;48.902;9.204;2024-02-26T05:57:20;2.20;;;2.00;;
7142;SDS011;3613;48.902;9.204;2024-02-26T05:59:46;3.03;;;2.23;;
7142;SDS011;3613;48.902;9.204;2024-02-26T06:02:13;2.53;;;2.33;;
7142;SDS011;3613;48.902;9.204;2024-02-26T06:04:41;5.03;;;2.30;;
7142;SDS011;3613;48.902;9.204;2024-02-26T06:07:07;4.03;;;2.33;;
7142;SDS011;3613;48.902;9.204;2024-02-26T06:09:33;3.37;;;2.40;;
7142;SDS011;3613;48.902;9.204;2024-02-26T06:12:01;3.23;;;2.33;;
7142;SDS011;3613;48.902;9.204;2024-02-26T06:14:26;3.00;;;2.70;;
7142;SDS011;3613;48.902;9.204;2024-02-26T06:16:52;4.23;;;2.40;;
7142;SDS011;3613;48.902;9.204;2024-02-26T06:19:17;3.47;;;2.63;;
7142;SDS011;3613;48.902;9.204;2024-02-26T06:21:43;3.10;;;2.37;;
7142;SDS011;3613;48.902;9.204;2024-02-26T06:24:09;3.47;;;2.60;;
7142;SDS011;3613;48.902;9.204;2024-02-26T06:26:34;2.77;;;2.40;;
7142;SDS011;3613;48.902;9.204;2024-02-26T06:29:02;3.30;;;2.50;;
7142;SDS011;3613;48.902;9.204;2024-02-26T06:31:30;3.07;;;2.37;;
7142;SDS011;3613;48.902;9.204;2024-02-26T06:33:56;3.13;;;2.43;;
7142;SDS011;3613;48.902;9.204;2024-02-26T06:36:22;2.87;;;2.40;;
7142;SDS011;3613;48.902;9.204;2024-02-26T06:38:47;2.83;;;2.40;;
7142;SDS011;3613;48.902;9.204;2024-02-26T06:41:14;3.93;;;2.27;;
7142;SDS011;3613;48.902;9.204;2024-02-26T06:43:39;3.67;;;2.40;;
7142;SDS011;3613;48.902;9.204;2024-02-26T06:46:07;4.40;;;2.33;;
7142;SDS011;3613;48.902;9.204;2024-02-26T06:48:35;2.57;;;2.10;;
7142;SDS011;3613;48.902;9.204;2024-02-26T06:51:04;3.23;;;1.97;;
7142;SDS011;3613;48.902;9.204;2024-02-26T06:53:29;3.57;;;2.37;;
7142;SDS011;3613;48.902;9.204;2024-02-26T06:55:55;3.63;;;2.10;;
7142;SDS011;3613;48.902;9.204;2024-02-26T06:58:21;2.33;;;1.80;;
7142;SDS011;3613;48.902;9.204;2024-02-26T07:00:46;3.33;;;2.33;;
7142;SDS011;3613;48.902;9.204;2024-02-26T07:03:12;2.20;;;1.90;;
7142;SDS011;3613;48.902;9.204;2024-02-26T07:05:40;3.13;;;2.20;;
7142;SDS011;3613;48.902;9.204;2024-02-26T07:08:06;2.03;;;1.73;;
7142;SDS011;3613;48.902;9.204;2024-02-26T07:10:32;3.53;;;2.63;;
7142;SDS011;3613;48.902;9.204;2024-02-26T07:12:57;2.17;;;1.83;;
7142;SDS011;3613;48.902;9.204;2024-02-26T07:15:25;2.20;;;1.80;;
7142;SDS011;3613;48.902;9.204;2024-02-26T07:17:51;3.13;;;2.17;;
7142;SDS011;3613;48.902;9.204;2024-02-26T07:20:17;3.73;;;2.13;;
7142;SDS011;3613;48.902;9.204;2024-02-26T07:22:44;3.20;;;1.83;;
7142;SDS011;3613;48.902;9.204;2024-02-26T07:25:10;1.70;;;1.60;;
7142;SDS011;3613;48.902;9.204;2024-02-26T07:27:38;2.00;;;1.80;;
7142;SDS011;3613;48.902;9.204;2024-02-26T07:30:12;2.60;;;1.90;;
7142;SDS011;3613;48.902;9.204;2024-02-26T07:32:41;2.10;;;1.60;;
7142;SDS011;3613;48.902;9.204;2024-02-26T07:35:09;2.43;;;1.90;;
7142;SDS011;3613;48.902;9.204;2024-02-26T07:37:35;2.40;;;1.70;;
7142;SDS011;3613;48.902;9.204;2024-02-26T07:40:00;2.00;;;1.80;;
7142;SDS011;3613;48.902;9.204;2024-02-26T07:42:28;2.70;;;1.90;;
7142;SDS011;3613;48.902;9.204;2024-02-26T07:44:56;2.60;;;2.00;;
7142;SDS011;3613;48.902;9.204;2024-02-26T07:47:22;2.50;;;1.70;;
7142;SDS011;3613;48.902;9.204;2024-02-26T07:49:53;2.43;;;1.80;;
7142;SDS011;3613;48.902;9.204;2024-02-26T07:52:19;2.43;;;1.87;;
7142;SDS011;3613;48.902;9.204;2024-02-26T07:54:50;3.03;;;1.80;;
7142;SDS011;3613;48.902;9.204;2024-02-26T07:57:24;2.53;;;1.70;;
7142;SDS011;3613;48.902;9.204;2024-02-26T07:59:52;2.83;;;1.67;;
7142;SDS011;3613;48.902;9.204;2024-02-26T08:02:18;1.63;;;1.50;;
7142;SDS011;3613;48.902;9.204;2024-02-26T08:04:48;2.00;;;1.50;;
7142;SDS011;3613;48.902;9.204;2024-02-26T08:07:14;1.80;;;1.70;;
7142;SDS011;3613;48.902;9.204;2024-02-26T08:09:39;2.70;;;1.93;;
7142;SDS011;3613;48.902;9.204;2024-02-26T08:12:05;2.43;;;1.90;;
7142;SDS011;3613;48.902;9.204;2024-02-26T08:14:33;2.70;;;1.90;;
7142;SDS011;3613;48.902;9.204;2024-02-26T08:17:01;2.00;;;1.70;;
7142;SDS011;3613;48.902;9.204;2024-02-26T08:19:26;2.83;;;2.00;;
7142;SDS011;3613;48.902;9.204;2024-02-26T08:21:57;2.07;;;1.77;;
7142;SDS011;3613;48.902;9.204;2024-02-26T08:24:27;2.70;;;1.70;;
7142;SDS011;3613;48.902;9.204;2024-02-26T08:26:53;2.60;;;1.80;;
7142;SDS011;3613;48.902;9.204;2024-02-26T08:29:21;3.90;;;2.00;;
7142;SDS011;3613;48.902;9.204;2024-02-26T08:31:47;3.27;;;1.90;;
7142;SDS011;3613;48.902;9.204;2024-02-26T08:34:15;2.43;;;1.70;;
7142;SDS011;3613;48.902;9.204;2024-02-26T08:36:40;2.40;;;1.70;;
7142;SDS011;3613;48.902;9.204;2024-02-26T08:39:12;2.40;;;1.90;;
7142;SDS011;3613;48.902;9.204;2024-02-26T08:41:38;2.20;;;2.00;;
7142;SDS011;3613;48.902;9.204;2024-02-26T08:44:06;2.53;;;2.10;;
7142;SDS011;3613;48.902;9.204;2024-02-26T08:46:32;2.83;;;1.87;;
7142;SDS011;3613;48.902;9.204;2024-02-26T08:48:58;2.17;;;1.97;;
7142;SDS011;3613;48.902;9.204;2024-02-26T08:51:23;3.27;;;1.90;;
7142;SDS011;3613;48.902;9.204;2024-02-26T08:53:51;2.10;;;1.57;;
7142;SDS011;3613;48.902;9.204;2024-02-26T08:56:17;1.93;;;1.70;;
7142;SDS011;3613;48.902;9.204;2024-02-26T08:58:45;2.20;;;1.93;;
7142;SDS011;3613;48.902;9.204;2024-02-26T09:01:16;2.70;;;2.10;;
7142;SDS011;3613;48.902;9.204;2024-02-26T09:03:45;2.83;;;2.10;;
7142;SDS011;3613;48.902;9.204;2024-02-26T09:06:10;2.63;;;1.60;;
7142;SDS011;3613;48.902;9.204;2024-02-26T09:08:39;1.93;;;1.73;;
7142;SDS011;3613;48.902;9.204;2024-02-26T09:11:06;3.17;;;1.83;;
7142;SDS011;3613;48.902;9.204;2024-02-26T09:13:35;2.17;;;1.63;;
7142;SDS011;3613;48.902;9.204;2024-02-26T09:16:00;1.93;;;1.73;;
7142;SDS011;3613;48.902;9.204;2024-02-26T09:18:29;2.80;;;1.90;;
7142;SDS011;3613;48.902;9.204;2024-02-26T09:20:57;2.03;;;1.80;;
7142;SDS011;3613;48.902;9.204;2024-02-26T09:23:23;3.70;;;1.90;;
7142;SDS011;3613;48.902;9.204;2024-02-26T09:25:48;2.43;;;1.73;;
7142;SDS011;3613;48.902;9.204;2024-02-26T09:28:14;1.60;;;1.43;;
7142;SDS011;3613;48.902;9.204;2024-02-26T09:30:42;2.00;;;1.70;;
7142;SDS011;3613;48.902;9.204;2024-02-26T09:33:11;2.70;;;1.80;;
7142;SDS011;3613;48.902;9.204;2024-02-26T09:35:41;2.20;;;1.70;;
7142;SDS011;3613;48.902;9.204;2024-02-26T09:38:06;2.87;;;1.90;;
7142;SDS011;3613;48.902;9.204;2024-02-26T09:40:32;2.43;;;1.90;;
7142;SDS011;3613;48.902;9.204;2024-02-26T09:43:02;1.50;;;1.40;;
7142;SDS011;3613;48.902;9.204;2024-02-26T09:45:33;2.17;;;1.60;;
7142;SDS011;3613;48.902;9.204;2024-02-26T09:47:59;2.40;;;1.90;;
7142;SDS011;3613;48.902;9.204;2024-02-26T09:50:29;2.70;;;1.80;;
7142;SDS011;3613;48.902;9.204;2024-02-26T09:52:57;1.90;;;1.60;;
7142;SDS011;3613;48.902;9.204;2024-02-26T09:55:27;1.63;;;1.53;;
7142;SDS011;3613;48.902;9.204;2024-02-26T09:57:53;2.37;;;1.60;;
7142;SDS011;3613;48.902;9.204;2024-02-26T10:00:20;2.17;;;1.60;;
7142;SDS011;3613;48.902;9.204;2024-02-26T10:02:47;2.33;;;1.73;;
7142;SDS011;3613;48.902;9.204;2024-02-26T10:05:16;1.87;;;1.73;;
7142;SDS011;3613;48.902;9.204;2024-02-26T10:07:44;2.33;;;2.00;;
7142;SDS011;3613;48.902;9.204;2024-02-26T10:10:12;1.90;;;1.47;;
7142;SDS011;3613;48.902;9.204;2024-02-26T10:12:38;1.90;;;1.50;;
7142;SDS011;3613;48.902;9.204;2024-02-26T10:15:07;2.23;;;1.63;;
7142;SDS011;3613;48.902;9.204;2024-02-26T10:17:33;2.60;;;1.83;;
7142;SDS011;3613;48.902;9.204;2024-02-26T10:20:15;2.27;;;1.73;;
7142;SDS011;3613;48.902;9.204;2024-02-26T10:22:48;2.73;;;1.93;;
7142;SDS011;3613;48.902;9.204;2024-02-26T10:25:14;2.57;;;1.80;;
7142;SDS011;3613;48.902;9.204;2024-02-26T10:27:43;2.63;;;1.80;;
7142;SDS011;3613;48.902;9.204;2024-02-26T10:32:46;2.23;;;1.70;;
7142;SDS011;3613;48.902;9.204;2024-02-26T10:35:13;2.00;;;1.50;;
7142;SDS011;3613;48.902;9.204;2024-02-26T10:37:42;1.80;;;1.50;;
7142;SDS011;3613;48.902;9.204;2024-02-26T10:40:12;2.43;;;1.83;;
7142;SDS011;3613;48.902;9.204;2024-02-26T10:42:38;2.37;;;1.70;;
7142;SDS011;3613;48.902;9.204;2024-02-26T10:45:05;2.10;;;1.53;;
7142;SDS011;3613;48.902;9.204;2024-02-26T10:47:32;1.93;;;1.57;;
7142;SDS011;3613;48.902;9.204;2024-02-26T10:49:58;2.07;;;1.60;;
7142;SDS011;3613;48.902;9.204;2024-02-26T10:52:26;2.30;;;1.73;;
7142;SDS011;3613;48.902;9.204;2024-02-26T10:54:56;1.77;;;1.60;;
7142;SDS011;3613;48.902;9.204;2024-02-26T10:57:23;1.93;;;1.50;;
7142;SDS011;3613;48.902;9.204;2024-02-26T10:59:51;2.07;;;1.43;;
7142;SDS011;3613;48.902;9.204;2024-02-26T11:02:19;2.37;;;1.53;;
7142;SDS011;3613;48.902;9.204;2024-02-26T11:04:46;1.77;;;1.40;;
7142;SDS011;3613;48.902;9.204;2024-02-26T11:07:12;2.57;;;1.90;;
7142;SDS011;3613;48.902;9.204;2024-02-26T11:09:39;1.87;;;1.63;;
7142;SDS011;3613;48.902;9.204;2024-02-26T11:12:11;1.90;;;1.70;;
7142;SDS011;3613;48.902;9.204;2024-02-26T11:14:39;2.30;;;1.80;;
7142;SDS011;3613;48.902;9.204;2024-02-26T11:17:05;2.60;;;1.70;;
7142;SDS011;3613;48.902;9.204;2024-02-26T11:19:34;1.90;;;1.43;;
7142;SDS011;3613;48.902;9.204;2024-02-26T11:22:00;2.00;;;1.40;;
7142;SDS011;3613;48.902;9.204;2024-02-26T11:24:29;1.80;;;1.70;;
7142;SDS011;3613;48.902;9.204;2024-02-26T11:26:56;1.97;;;1.60;;
7142;SDS011;3613;48.902;9.204;2024-02-26T11:29:26;2.30;;;1.73;;
7142;SDS011;3613;48.902;9.204;2024-02-26T11:31:59;2.27;;;1.70;;
7142;SDS011;3613;48.902;9.204;2024-02-26T11:34:25;2.07;;;1.73;;
7142;SDS011;3613;48.902;9.204;2024-02-26T11:36:51;1.77;;;1.50;;
7142;SDS011;3613;48.902;9.204;2024-02-26T11:39:20;2.33;;;1.87;;
7142;SDS011;3613;48.902;9.204;2024-02-26T11:41:49;2.33;;;1.90;;
7142;SDS011;3613;48.902;9.204;2024-02-26T11:44:28;1.80;;;1.53;;
7142;SDS011;3613;48.902;9.204;2024-02-26T11:46:55;1.80;;;1.60;;
7142;SDS011;3613;48.902;9.204;2024-02-26T11:51:58;1.67;;;1.40;;
7142;SDS011;3613;48.902;9.204;2024-02-26T11:59:51;1.93;;;1.47;;
7142;SDS011;3613;48.902;9.204;2024-02-26T12:05:19;2.13;;;1.67;;
7142;SDS011;3613;48.902;9.204;2024-02-26T12:08:09;1.70;;;1.60;;
7142;SDS011;3613;48.902;9.204;2024-02-26T12:13:20;1.73;;;1.63;;
7142;SDS011;3613;48.902;9.204;2024-02-26T12:15:59;1.93;;;1.53;;
7142;SDS011;3613;48.902;9.204;2024-02-26T12:18:24;2.20;;;1.40;;
7142;SDS011;3613;48.902;9.204;2024-02-26T12:21:01;2.50;;;1.60;;
7142;SDS011;3613;48.902;9.204;2024-02-26T12:23:29;2.20;;;1.60;;
7142;SDS011;3613;48.902;9.204;2024-02-26T12:25:58;2.00;;;1.50;;
7142;SDS011;3613;48.902;9.204;2024-02-26T12:28:30;3.50;;;1.70;;
7142;SDS011;3613;48.902;9.204;2024-02-26T12:30:55;2.00;;;1.70;;
7142;SDS011;3613;48.902;9.204;2024-02-26T12:33:24;2.03;;;1.53;;
7142;SDS011;3613;48.902;9.204;2024-02-26T12:35:51;1.47;;;1.37;;
7142;SDS011;3613;48.902;9.204;2024-02-26T12:38:17;1.60;;;1.40;;
7142;SDS011;3613;48.902;9.204;2024-02-26T12:40:45;2.57;;;1.53;;
7142;SDS011;3613;48.902;9.204;2024-02-26T12:43:11;1.50;;;1.37;;
7142;SDS011;3613;48.902;9.204;2024-02-26T12:45:41;1.73;;;1.43;;
7142;SDS011;3613;48.902;9.204;2024-02-26T12:48:10;2.20;;;1.60;;
7142;SDS011;3613;48.902;9.204;2024-02-26T12:50:37;2.17;;;1.70;;
7142;SDS011;3613;48.902;9.204;2024-02-26T12:53:02;1.43;;;1.33;;
7142;SDS011;3613;48.902;9.204;2024-02-26T12:55:28;1.60;;;1.50;;
7142;SDS011;3613;48.902;9.204;2024-02-26T12:57:57;1.83;;;1.40;;
7142;SDS011;3613;48.902;9.204;2024-02-26T13:00:25;1.43;;;1.27;;
7142;SDS011;3613;48.902;9.204;2024-02-26T13:02:54;1.60;;;1.30;;
7142;SDS011;3613;48.902;9.204;2024-02-26T13:05:20;1.90;;;1.57;;
7142;SDS011;3613;48.902;9.204;2024-02-26T13:07:51;1.60;;;1.40;;
7142;SDS011;3613;48.902;9.204;2024-02-26T13:10:24;2.00;;;1.70;;
7142;SDS011;3613;48.902;9.204;2024-02-26T13:12:50;1.73;;;1.30;;
7142;SDS011;3613;48.902;9.204;2024-02-26T13:15:19;1.63;;;1.53;;
7142;SDS011;3613;48.902;9.204;2024-02-26T13:17:48;1.73;;;1.50;;
7142;SDS011;3613;48.902;9.204;2024-02-26T13:22:59;1.97;;;1.30;;
7142;SDS011;3613;48.902;9.204;2024-02-26T13:25:29;3.60;;;1.97;;
7142;SDS011;3613;48.902;9.204;2024-02-26T13:28:14;1.60;;;1.50;;
7142;SDS011;3613;48.902;9.204;2024-02-26T13:30:50;1.60;;;1.47;;
7142;SDS011;3613;48.902;9.204;2024-02-26T13:33:26;1.60;;;1.40;;
7142;SDS011;3613;48.902;9.204;2024-02-26T13:35:55;1.50;;;1.30;;
7142;SDS011;3613;48.902;9.204;2024-02-26T13:38:21;2.33;;;1.47;;
7142;SDS011;3613;48.902;9.204;2024-02-26T13:40:47;1.87;;;1.30;;
7142;SDS011;3613;48.902;9.204;2024-02-26T13:43:15;2.30;;;1.53;;
7142;SDS011;3613;48.902;9.204;2024-02-26T13:45:44;1.30;;;1.20;;
7142;SDS011;3613;48.902;9.204;2024-02-26T13:48:10;1.23;;;1.13;;
7142;SDS011;3613;48.902;9.204;2024-02-26T13:50:36;2.03;;;1.70;;
7142;SDS011;3613;48.902;9.204;2024-02-26T13:53:03;1.70;;;1.50;;
7142;SDS011;3613;48.902;9.204;2024-02-26T13:55:36;1.60;;;1.50;;
7142;SDS011;3613;48.902;9.204;2024-02-26T13:58:04;1.70;;;1.50;;
7142;SDS011;3613;48.902;9.204;2024-02-26T14:00:32;1.30;;;1.20;;
7142;SDS011;3613;48.902;9.204;2024-02-26T14:02:59;2.20;;;1.80;;
7142;SDS011;3613;48.902;9.204;2024-02-26T14:05:27;1.70;;;1.47;;
7142;SDS011;3613;48.902;9.204;2024-02-26T14:07:53;2.40;;;1.47;;
7142;SDS011;3613;48.902;9.204;2024-02-26T14:10:21;2.17;;;1.47;;
7142;SDS011;3613;48.902;9.204;2024-02-26T14:12:47;1.40;;;1.30;;
7142;SDS011;3613;48.902;9.204;2024-02-26T14:15:18;2.80;;;1.60;;
7142;SDS011;3613;48.902;9.204;2024-02-26T14:17:43;1.50;;;1.40;;
7142;SDS011;3613;48.902;9.204;2024-02-26T14:20:18;1.93;;;1.20;;
7142;SDS011;3613;48.902;9.204;2024-02-26T14:22:43;1.77;;;1.50;;
7142;SDS011;3613;48.902;9.204;2024-02-26T14:25:09;2.87;;;1.80;;
7142;SDS011;3613;48.902;9.204;2024-02-26T14:27:37;1.70;;;1.30;;
7142;SDS011;3613;48.902;9.204;2024-02-26T14:30:05;1.53;;;1.40;;
7142;SDS011;3613;48.902;9.204;2024-02-26T14:32:31;1.40;;;1.30;;
7142;SDS011;3613;48.902;9.204;2024-02-26T14:35:01;1.60;;;1.50;;
7142;SDS011;3613;48.902;9.204;2024-02-26T14:37:30;1.50;;;1.30;;
7142;SDS011;3613;48.902;9.204;2024-02-26T14:39:58;1.40;;;1.30;;
7142;SDS011;3613;48.902;9.204;2024-02-26T14:42:23;1.60;;;1.33;;
7142;SDS011;3613;48.902;9.204;2024-02-26T14:44:49;1.67;;;1.40;;
7142;SDS011;3613;48.902;9.204;2024-02-26T14:47:17;1.60;;;1.50;;
7142;SDS011;3613;48.902;9.204;2024-02-26T14:49:43;1.63;;;1.30;;
7142;SDS011;3613;48.902;9.204;2024-02-26T14:52:13;1.50;;;1.40;;
7142;SDS011;3613;48.902;9.204;2024-02-26T14:54:42;1.50;;;1.40;;
7142;SDS011;3613;48.902;9.204;2024-02-26T14:57:10;1.43;;;1.30;;
7142;SDS011;3613;48.902;9.204;2024-02-26T14:59:38;1.40;;;1.30;;
7142;SDS011;3613;48.902;9.204;2024-02-26T15:02:09;1.53;;;1.43;;
7142;SDS011;3613;48.902;9.204;2024-02-26T15:04:38;1.33;;;1.23;;
7142;SDS011;3613;48.902;9.204;2024-02-26T15:07:04;1.27;;;1.17;;
7142;SDS011;3613;48.902;9.204;2024-02-26T15:09:30;1.20;;;1.10;;
7142;SDS011;3613;48.902;9.204;2024-02-26T15:11:55;1.83;;;1.53;;
7142;SDS011;3613;48.902;9.204;2024-02-26T15:14:23;1.20;;;1.10;;
7142;SDS011;3613;48.902;9.204;2024-02-26T15:16:54;1.30;;;1.20;;
7142;SDS011;3613;48.902;9.204;2024-02-26T15:19:19;1.30;;;1.20;;
7142;SDS011;3613;48.902;9.204;2024-02-26T15:21:45;2.00;;;1.40;;
7142;SDS011;3613;48.902;9.204;2024-02-26T15:24:14;1.73;;;1.33;;
7142;SDS011;3613;48.902;9.204;2024-02-26T15:26:43;1.50;;;1.40;;
7142;SDS011;3613;48.902;9.204;2024-02-26T15:29:12;1.97;;;1.53;;
7142;SDS011;3613;48.902;9.204;2024-02-26T15:31:40;1.93;;;1.37;;
7142;SDS011;3613;48.902;9.204;2024-02-26T15:34:05;1.60;;;1.30;;
7142;SDS011;3613;48.902;9.204;2024-02-26T15:36:34;1.60;;;1.50;;